sensor_id;sensor_type;location;lat;lon;timestamp;P1;durP1;ratioP1;P2;durP2;ratioP2
48487;SDS011;34289;48.572;13.378;2023-12-14T00:00:31;12.98;;;9.05;;
48487;SDS011;34289;48.572;13.378;2023-12-14T00:02:57;12.40;;;8.13;;
48487;SDS011;34289;48.572;13.378;2023-12-14T00:05:23;16.02;;;10.10;;
48487;SDS011;34289;48.572;13.378;2023-12-14T00:07:48;11.65;;;8.00;;
48487;SDS011;34289;48.572;13.378;2023-12-14T00:10:14;11.98;;;8.30;;
48487;SDS011;34289;48.572;13.378;2023-12-14T00:12:40;12.57;;;8.05;;
48487;SDS011;34289;48.572;13.378;2023-12-14T00:15:06;16.02;;;10.00;;
48487;SDS011;34289;48.572;13.378;2023-12-14T00:17:32;16.92;;;9.60;;
48487;SDS011;34289;48.572;13.378;2023-12-14T00:19:57;14.25;;;9.65;;
48487;SDS011;34289;48.572;13.378;2023-12-14T00:22:23;13.18;;;8.68;;
48487;SDS011;34289;48.572;13.378;2023-12-14T00:24:49;10.85;;;7.60;;
48487;SDS011;34289;48.572;13.378;2023-12-14T00:27:14;12.23;;;8.48;;
48487;SDS011;34289;48.572;13.378;2023-12-14T00:29:40;15.70;;;8.60;;
48487;SDS011;34289;48.572;13.378;2023-12-14T00:32:06;9.63;;;6.20;;
48487;SDS011;34289;48.572;13.378;2023-12-14T00:34:31;7.15;;;5.22;;
48487;SDS011;34289;48.572;13.378;2023-12-14T00:36:57;9.48;;;7.28;;
48487;SDS011;34289;48.572;13.378;2023-12-14T00:39:23;7.00;;;5.65;;
48487;SDS011;34289;48.572;13.378;2023-12-14T00:41:48;11.57;;;6.30;;
48487;SDS011;34289;48.572;13.378;2023-12-14T00:44:14;8.75;;;6.13;;
48487;SDS011;34289;48.572;13.378;2023-12-14T00:46:40;7.13;;;5.50;;
48487;SDS011;34289;48.572;13.378;2023-12-14T00:49:09;8.05;;;5.15;;
48487;SDS011;34289;48.572;13.378;2023-12-14T00:51:35;8.02;;;6.45;;
48487;SDS011;34289;48.572;13.378;2023-12-14T00:54:01;8.77;;;6.50;;
48487;SDS011;34289;48.572;13.378;2023-12-14T00:56:26;13.10;;;6.70;;
48487;SDS011;34289;48.572;13.378;2023-12-14T00:58:52;10.63;;;6.20;;
48487;SDS011;34289;48.572;13.378;2023-12-14T01:01:21;8.60;;;6.25;;
48487;SDS011;34289;48.572;13.378;2023-12-14T01:03:47;13.63;;;7.88;;
48487;SDS011;34289;48.572;13.378;2023-12-14T01:06:12;13.77;;;7.95;;
48487;SDS011;34289;48.572;13.378;2023-12-14T01:08:38;13.77;;;7.90;;
48487;SDS011;34289;48.572;13.378;2023-12-14T01:11:04;10.00;;;6.80;;
48487;SDS011;34289;48.572;13.378;2023-12-14T01:13:29;9.95;;;6.95;;
48487;SDS011;34289;48.572;13.378;2023-12-14T01:15:58;9.95;;;6.22;;
48487;SDS011;34289;48.572;13.378;2023-12-14T01:18:23;6.15;;;5.00;;
48487;SDS011;34289;48.572;13.378;2023-12-14T01:20:52;7.25;;;5.15;;
48487;SDS011;34289;48.572;13.378;2023-12-14T01:23:17;7.68;;;5.63;;
48487;SDS011;34289;48.572;13.378;2023-12-14T01:25:43;8.15;;;6.13;;
48487;SDS011;34289;48.572;13.378;2023-12-14T01:28:11;9.00;;;6.35;;
48487;SDS011;34289;48.572;13.378;2023-12-14T01:30:39;8.25;;;5.75;;
48487;SDS011;34289;48.572;13.378;2023-12-14T01:33:08;10.15;;;5.47;;
48487;SDS011;34289;48.572;13.378;2023-12-14T01:35:33;11.90;;;7.20;;
48487;SDS011;34289;48.572;13.378;2023-12-14T01:37:59;11.77;;;6.85;;
48487;SDS011;34289;48.572;13.378;2023-12-14T01:40:25;12.18;;;7.05;;
48487;SDS011;34289;48.572;13.378;2023-12-14T01:42:50;12.18;;;7.60;;
48487;SDS011;34289;48.572;13.378;2023-12-14T01:45:16;13.75;;;7.68;;
48487;SDS011;34289;48.572;13.378;2023-12-14T01:47:42;9.82;;;7.20;;
48487;SDS011;34289;48.572;13.378;2023-12-14T01:50:12;11.60;;;7.82;;
48487;SDS011;34289;48.572;13.378;2023-12-14T01:52:37;10.38;;;7.43;;
48487;SDS011;34289;48.572;13.378;2023-12-14T01:55:04;12.13;;;7.47;;
48487;SDS011;34289;48.572;13.378;2023-12-14T01:57:30;12.32;;;7.35;;
48487;SDS011;34289;48.572;13.378;2023-12-14T01:59:55;13.73;;;7.30;;
48487;SDS011;34289;48.572;13.378;2023-12-14T02:02:21;12.27;;;7.18;;
48487;SDS011;34289;48.572;13.378;2023-12-14T02:04:46;9.55;;;7.32;;
48487;SDS011;34289;48.572;13.378;2023-12-14T02:07:12;10.93;;;7.13;;
48487;SDS011;34289;48.572;13.378;2023-12-14T02:09:38;12.95;;;6.82;;
48487;SDS011;34289;48.572;13.378;2023-12-14T02:12:04;10.25;;;5.82;;
48487;SDS011;34289;48.572;13.378;2023-12-14T02:14:33;9.23;;;4.40;;
48487;SDS011;34289;48.572;13.378;2023-12-14T02:17:01;4.50;;;4.10;;
48487;SDS011;34289;48.572;13.378;2023-12-14T02:19:27;4.38;;;3.97;;
48487;SDS011;34289;48.572;13.378;2023-12-14T02:21:52;4.50;;;4.10;;
48487;SDS011;34289;48.572;13.378;2023-12-14T02:24:18;4.60;;;4.20;;
48487;SDS011;34289;48.572;13.378;2023-12-14T02:26:44;4.88;;;3.95;;
48487;SDS011;34289;48.572;13.378;2023-12-14T02:29:09;4.53;;;4.22;;
48487;SDS011;34289;48.572;13.378;2023-12-14T02:31:35;4.85;;;4.45;;
48487;SDS011;34289;48.572;13.378;2023-12-14T02:34:00;5.43;;;4.82;;
48487;SDS011;34289;48.572;13.378;2023-12-14T02:36:26;4.60;;;4.22;;
48487;SDS011;34289;48.572;13.378;2023-12-14T02:38:52;6.35;;;3.70;;
48487;SDS011;34289;48.572;13.378;2023-12-14T02:41:18;4.40;;;4.00;;
48487;SDS011;34289;48.572;13.378;2023-12-14T02:43:43;6.60;;;3.80;;
48487;SDS011;34289;48.572;13.378;2023-12-14T02:46:12;4.20;;;3.80;;
48487;SDS011;34289;48.572;13.378;2023-12-14T02:48:43;5.35;;;4.85;;
48487;SDS011;34289;48.572;13.378;2023-12-14T02:51:13;6.72;;;5.28;;
48487;SDS011;34289;48.572;13.378;2023-12-14T02:53:39;6.97;;;5.55;;
48487;SDS011;34289;48.572;13.378;2023-12-14T02:56:11;5.85;;;4.43;;
48487;SDS011;34289;48.572;13.378;2023-12-14T02:58:36;6.93;;;4.53;;
48487;SDS011;34289;48.572;13.378;2023-12-14T03:01:02;5.32;;;4.78;;
48487;SDS011;34289;48.572;13.378;2023-12-14T03:03:31;5.22;;;4.55;;
48487;SDS011;34289;48.572;13.378;2023-12-14T03:05:57;7.10;;;4.68;;
48487;SDS011;34289;48.572;13.378;2023-12-14T03:08:22;5.10;;;4.60;;
48487;SDS011;34289;48.572;13.378;2023-12-14T03:10:48;4.45;;;4.05;;
48487;SDS011;34289;48.572;13.378;2023-12-14T03:13:13;5.70;;;4.70;;
48487;SDS011;34289;48.572;13.378;2023-12-14T03:16:08;5.15;;;4.65;;
48487;SDS011;34289;48.572;13.378;2023-12-14T03:18:37;5.10;;;4.38;;
48487;SDS011;34289;48.572;13.378;2023-12-14T03:21:02;4.72;;;4.32;;
48487;SDS011;34289;48.572;13.378;2023-12-14T03:23:28;4.35;;;3.92;;
48487;SDS011;34289;48.572;13.378;2023-12-14T03:26:11;8.48;;;4.65;;
48487;SDS011;34289;48.572;13.378;2023-12-14T03:28:39;4.82;;;4.43;;
48487;SDS011;34289;48.572;13.378;2023-12-14T03:31:05;5.35;;;4.60;;
48487;SDS011;34289;48.572;13.378;2023-12-14T03:33:30;5.60;;;4.15;;
48487;SDS011;34289;48.572;13.378;2023-12-14T03:35:56;4.53;;;4.07;;
48487;SDS011;34289;48.572;13.378;2023-12-14T03:38:33;4.07;;;3.78;;
48487;SDS011;34289;48.572;13.378;2023-12-14T03:40:59;4.95;;;4.45;;
48487;SDS011;34289;48.572;13.378;2023-12-14T03:43:25;4.43;;;3.65;;
48487;SDS011;34289;48.572;13.378;2023-12-14T03:45:50;7.70;;;4.00;;
48487;SDS011;34289;48.572;13.378;2023-12-14T03:48:16;5.93;;;4.15;;
48487;SDS011;34289;48.572;13.378;2023-12-14T03:50:41;5.72;;;4.53;;
48487;SDS011;34289;48.572;13.378;2023-12-14T03:53:07;5.07;;;4.57;;
48487;SDS011;34289;48.572;13.378;2023-12-14T03:55:36;4.43;;;4.03;;
48487;SDS011;34289;48.572;13.378;2023-12-14T03:58:07;4.63;;;4.13;;
48487;SDS011;34289;48.572;13.378;2023-12-14T04:00:33;5.70;;;4.07;;
48487;SDS011;34289;48.572;13.378;2023-12-14T04:03:01;4.40;;;3.83;;
48487;SDS011;34289;48.572;13.378;2023-12-14T04:05:26;6.28;;;4.35;;
48487;SDS011;34289;48.572;13.378;2023-12-14T04:07:52;5.38;;;4.57;;
48487;SDS011;34289;48.572;13.378;2023-12-14T04:10:18;4.97;;;4.50;;
48487;SDS011;34289;48.572;13.378;2023-12-14T04:12:44;4.95;;;4.15;;
48487;SDS011;34289;48.572;13.378;2023-12-14T04:15:09;4.05;;;3.65;;
48487;SDS011;34289;48.572;13.378;2023-12-14T04:17:35;4.40;;;4.00;;
48487;SDS011;34289;48.572;13.378;2023-12-14T04:20:04;3.92;;;3.63;;
48487;SDS011;34289;48.572;13.378;2023-12-14T04:22:31;4.70;;;4.30;;
48487;SDS011;34289;48.572;13.378;2023-12-14T04:24:57;4.82;;;4.18;;
48487;SDS011;34289;48.572;13.378;2023-12-14T04:27:23;6.28;;;4.72;;
48487;SDS011;34289;48.572;13.378;2023-12-14T04:29:53;5.18;;;4.68;;
48487;SDS011;34289;48.572;13.378;2023-12-14T04:32:26;6.35;;;5.65;;
48487;SDS011;34289;48.572;13.378;2023-12-14T04:34:52;7.03;;;5.65;;
48487;SDS011;34289;48.572;13.378;2023-12-14T04:37:18;7.10;;;5.65;;
48487;SDS011;34289;48.572;13.378;2023-12-14T04:39:44;8.65;;;6.50;;
48487;SDS011;34289;48.572;13.378;2023-12-14T04:42:10;6.18;;;5.60;;
48487;SDS011;34289;48.572;13.378;2023-12-14T04:44:36;5.85;;;5.10;;
48487;SDS011;34289;48.572;13.378;2023-12-14T04:47:01;6.43;;;4.95;;
48487;SDS011;34289;48.572;13.378;2023-12-14T04:49:27;7.13;;;6.43;;
48487;SDS011;34289;48.572;13.378;2023-12-14T04:51:53;10.80;;;6.47;;
48487;SDS011;34289;48.572;13.378;2023-12-14T04:54:18;5.80;;;4.75;;
48487;SDS011;34289;48.572;13.378;2023-12-14T04:56:51;8.50;;;7.20;;
48487;SDS011;34289;48.572;13.378;2023-12-14T04:59:22;5.43;;;4.90;;
48487;SDS011;34289;48.572;13.378;2023-12-14T05:01:48;8.68;;;6.22;;
48487;SDS011;34289;48.572;13.378;2023-12-14T05:04:13;8.13;;;5.85;;
48487;SDS011;34289;48.572;13.378;2023-12-14T05:06:39;10.52;;;7.22;;
48487;SDS011;34289;48.572;13.378;2023-12-14T05:09:05;14.57;;;8.52;;
48487;SDS011;34289;48.572;13.378;2023-12-14T05:11:31;9.23;;;7.07;;
48487;SDS011;34289;48.572;13.378;2023-12-14T05:13:57;6.35;;;5.40;;
48487;SDS011;34289;48.572;13.378;2023-12-14T05:16:23;9.70;;;6.50;;
48487;SDS011;34289;48.572;13.378;2023-12-14T05:18:55;9.82;;;6.57;;
48487;SDS011;34289;48.572;13.378;2023-12-14T05:21:22;11.88;;;7.18;;
48487;SDS011;34289;48.572;13.378;2023-12-14T05:23:54;8.00;;;5.93;;
48487;SDS011;34289;48.572;13.378;2023-12-14T05:26:19;8.85;;;5.35;;
48487;SDS011;34289;48.572;13.378;2023-12-14T05:28:45;7.03;;;5.28;;
48487;SDS011;34289;48.572;13.378;2023-12-14T05:31:11;5.88;;;5.15;;
48487;SDS011;34289;48.572;13.378;2023-12-14T05:33:39;14.88;;;8.45;;
48487;SDS011;34289;48.572;13.378;2023-12-14T05:36:06;9.93;;;5.65;;
48487;SDS011;34289;48.572;13.378;2023-12-14T05:38:36;8.57;;;5.72;;
48487;SDS011;34289;48.572;13.378;2023-12-14T05:41:05;9.18;;;5.80;;
48487;SDS011;34289;48.572;13.378;2023-12-14T05:43:31;6.65;;;4.68;;
48487;SDS011;34289;48.572;13.378;2023-12-14T05:45:56;7.90;;;4.95;;
48487;SDS011;34289;48.572;13.378;2023-12-14T05:48:22;5.78;;;3.90;;
48487;SDS011;34289;48.572;13.378;2023-12-14T05:50:48;7.93;;;4.65;;
48487;SDS011;34289;48.572;13.378;2023-12-14T05:53:16;4.47;;;3.75;;
48487;SDS011;34289;48.572;13.378;2023-12-14T05:55:45;4.95;;;4.13;;
48487;SDS011;34289;48.572;13.378;2023-12-14T05:58:11;4.15;;;3.80;;
48487;SDS011;34289;48.572;13.378;2023-12-14T06:00:36;4.40;;;4.00;;
48487;SDS011;34289;48.572;13.378;2023-12-14T06:03:02;6.00;;;4.32;;
48487;SDS011;34289;48.572;13.378;2023-12-14T06:05:28;6.63;;;3.22;;
48487;SDS011;34289;48.572;13.378;2023-12-14T06:07:53;3.38;;;3.08;;
48487;SDS011;34289;48.572;13.378;2023-12-14T06:10:20;5.85;;;3.45;;
48487;SDS011;34289;48.572;13.378;2023-12-14T06:12:46;4.22;;;3.25;;
48487;SDS011;34289;48.572;13.378;2023-12-14T06:15:12;5.78;;;4.10;;
48487;SDS011;34289;48.572;13.378;2023-12-14T06:17:38;4.63;;;3.10;;
48487;SDS011;34289;48.572;13.378;2023-12-14T06:20:05;4.88;;;3.35;;
48487;SDS011;34289;48.572;13.378;2023-12-14T06:22:51;5.70;;;3.45;;
48487;SDS011;34289;48.572;13.378;2023-12-14T06:25:17;3.58;;;3.03;;
48487;SDS011;34289;48.572;13.378;2023-12-14T06:27:43;5.15;;;3.30;;
48487;SDS011;34289;48.572;13.378;2023-12-14T06:30:10;3.70;;;3.03;;
48487;SDS011;34289;48.572;13.378;2023-12-14T06:32:41;3.97;;;3.17;;
48487;SDS011;34289;48.572;13.378;2023-12-14T06:35:07;7.55;;;3.13;;
48487;SDS011;34289;48.572;13.378;2023-12-14T06:37:33;3.97;;;3.10;;
48487;SDS011;34289;48.572;13.378;2023-12-14T06:39:58;3.92;;;3.30;;
48487;SDS011;34289;48.572;13.378;2023-12-14T06:42:30;6.22;;;3.40;;
48487;SDS011;34289;48.572;13.378;2023-12-14T06:44:58;4.45;;;3.25;;
48487;SDS011;34289;48.572;13.378;2023-12-14T06:47:27;3.83;;;3.17;;
48487;SDS011;34289;48.572;13.378;2023-12-14T06:49:56;5.20;;;3.90;;
48487;SDS011;34289;48.572;13.378;2023-12-14T06:52:24;4.07;;;3.67;;
48487;SDS011;34289;48.572;13.378;2023-12-14T06:54:49;3.92;;;3.63;;
48487;SDS011;34289;48.572;13.378;2023-12-14T06:57:15;4.80;;;4.30;;
48487;SDS011;34289;48.572;13.378;2023-12-14T06:59:41;5.75;;;4.30;;
48487;SDS011;34289;48.572;13.378;2023-12-14T07:02:06;4.25;;;3.55;;
48487;SDS011;34289;48.572;13.378;2023-12-14T07:04:32;8.85;;;4.00;;
48487;SDS011;34289;48.572;13.378;2023-12-14T07:07:01;5.55;;;3.97;;
48487;SDS011;34289;48.572;13.378;2023-12-14T07:09:26;5.10;;;4.13;;
48487;SDS011;34289;48.572;13.378;2023-12-14T07:11:52;4.85;;;4.45;;
48487;SDS011;34289;48.572;13.378;2023-12-14T07:14:18;9.45;;;4.95;;
48487;SDS011;34289;48.572;13.378;2023-12-14T07:16:44;6.80;;;5.47;;
48487;SDS011;34289;48.572;13.378;2023-12-14T07:19:10;6.45;;;5.85;;
48487;SDS011;34289;48.572;13.378;2023-12-14T07:21:36;6.55;;;5.88;;
48487;SDS011;34289;48.572;13.378;2023-12-14T07:24:04;7.10;;;5.47;;
48487;SDS011;34289;48.572;13.378;2023-12-14T07:26:36;8.50;;;6.13;;
48487;SDS011;34289;48.572;13.378;2023-12-14T07:29:02;10.15;;;6.80;;
48487;SDS011;34289;48.572;13.378;2023-12-14T07:31:27;6.35;;;5.60;;
48487;SDS011;34289;48.572;13.378;2023-12-14T07:33:54;11.25;;;6.60;;
48487;SDS011;34289;48.572;13.378;2023-12-14T07:36:20;8.85;;;7.18;;
48487;SDS011;34289;48.572;13.378;2023-12-14T07:38:49;12.70;;;8.45;;
48487;SDS011;34289;48.572;13.378;2023-12-14T07:41:14;10.13;;;8.45;;
48487;SDS011;34289;48.572;13.378;2023-12-14T07:43:40;10.00;;;7.93;;
48487;SDS011;34289;48.572;13.378;2023-12-14T07:46:07;9.85;;;8.18;;
48487;SDS011;34289;48.572;13.378;2023-12-14T07:48:32;11.43;;;8.15;;
48487;SDS011;34289;48.572;13.378;2023-12-14T07:50:58;8.52;;;7.20;;
48487;SDS011;34289;48.572;13.378;2023-12-14T07:53:27;10.65;;;8.23;;
48487;SDS011;34289;48.572;13.378;2023-12-14T07:55:56;9.40;;;8.05;;
48487;SDS011;34289;48.572;13.378;2023-12-14T07:58:23;10.77;;;7.78;;
48487;SDS011;34289;48.572;13.378;2023-12-14T08:00:51;9.52;;;8.30;;
48487;SDS011;34289;48.572;13.378;2023-12-14T08:03:16;11.48;;;9.43;;
48487;SDS011;34289;48.572;13.378;2023-12-14T08:05:42;12.02;;;8.90;;
48487;SDS011;34289;48.572;13.378;2023-12-14T08:08:07;13.82;;;9.15;;
48487;SDS011;34289;48.572;13.378;2023-12-14T08:10:33;16.98;;;10.15;;
48487;SDS011;34289;48.572;13.378;2023-12-14T08:12:58;12.27;;;9.18;;
48487;SDS011;34289;48.572;13.378;2023-12-14T08:15:24;13.13;;;9.98;;
48487;SDS011;34289;48.572;13.378;2023-12-14T08:17:51;16.17;;;10.70;;
48487;SDS011;34289;48.572;13.378;2023-12-14T08:20:17;13.45;;;9.95;;
48487;SDS011;34289;48.572;13.378;2023-12-14T08:22:42;12.45;;;9.90;;
48487;SDS011;34289;48.572;13.378;2023-12-14T08:25:13;13.60;;;9.70;;
48487;SDS011;34289;48.572;13.378;2023-12-14T08:27:40;14.27;;;10.85;;
48487;SDS011;34289;48.572;13.378;2023-12-14T08:30:06;15.02;;;10.30;;
48487;SDS011;34289;48.572;13.378;2023-12-14T08:32:32;13.15;;;10.75;;
48487;SDS011;34289;48.572;13.378;2023-12-14T08:35:01;17.63;;;11.68;;
48487;SDS011;34289;48.572;13.378;2023-12-14T08:37:27;15.80;;;11.85;;
48487;SDS011;34289;48.572;13.378;2023-12-14T08:39:52;16.83;;;11.60;;
48487;SDS011;34289;48.572;13.378;2023-12-14T08:42:18;17.33;;;11.02;;
48487;SDS011;34289;48.572;13.378;2023-12-14T08:44:48;13.13;;;10.65;;
48487;SDS011;34289;48.572;13.378;2023-12-14T08:47:13;13.45;;;10.90;;
48487;SDS011;34289;48.572;13.378;2023-12-14T08:49:39;15.43;;;11.88;;
48487;SDS011;34289;48.572;13.378;2023-12-14T08:52:04;17.83;;;12.13;;
48487;SDS011;34289;48.572;13.378;2023-12-14T08:54:30;15.80;;;11.23;;
48487;SDS011;34289;48.572;13.378;2023-12-14T08:56:56;17.00;;;11.82;;
48487;SDS011;34289;48.572;13.378;2023-12-14T08:59:21;15.23;;;12.07;;
48487;SDS011;34289;48.572;13.378;2023-12-14T09:01:47;17.15;;;12.10;;
48487;SDS011;34289;48.572;13.378;2023-12-14T09:04:12;15.18;;;12.02;;
48487;SDS011;34289;48.572;13.378;2023-12-14T09:06:38;15.15;;;11.88;;
48487;SDS011;34289;48.572;13.378;2023-12-14T09:09:07;16.55;;;11.48;;
48487;SDS011;34289;48.572;13.378;2023-12-14T09:11:32;15.32;;;11.65;;
48487;SDS011;34289;48.572;13.378;2023-12-14T09:14:13;13.75;;;11.10;;
48487;SDS011;34289;48.572;13.378;2023-12-14T09:16:47;15.68;;;11.30;;
48487;SDS011;34289;48.572;13.378;2023-12-14T09:19:13;15.32;;;10.73;;
48487;SDS011;34289;48.572;13.378;2023-12-14T09:21:38;18.58;;;11.40;;
48487;SDS011;34289;48.572;13.378;2023-12-14T09:24:04;14.07;;;11.05;;
48487;SDS011;34289;48.572;13.378;2023-12-14T09:26:30;16.48;;;10.65;;
48487;SDS011;34289;48.572;13.378;2023-12-14T09:28:58;15.20;;;11.70;;
48487;SDS011;34289;48.572;13.378;2023-12-14T09:31:24;15.10;;;10.98;;
48487;SDS011;34289;48.572;13.378;2023-12-14T09:33:49;12.60;;;10.93;;
48487;SDS011;34289;48.572;13.378;2023-12-14T09:36:16;11.65;;;10.40;;
48487;SDS011;34289;48.572;13.378;2023-12-14T09:38:41;12.25;;;10.50;;
48487;SDS011;34289;48.572;13.378;2023-12-14T09:41:07;13.55;;;11.18;;
48487;SDS011;34289;48.572;13.378;2023-12-14T09:43:35;15.80;;;11.30;;
48487;SDS011;34289;48.572;13.378;2023-12-14T09:46:02;15.63;;;11.10;;
48487;SDS011;34289;48.572;13.378;2023-12-14T09:48:28;15.65;;;10.85;;
48487;SDS011;34289;48.572;13.378;2023-12-14T09:50:55;14.18;;;10.82;;
48487;SDS011;34289;48.572;13.378;2023-12-14T09:53:20;18.95;;;12.77;;
48487;SDS011;34289;48.572;13.378;2023-12-14T09:55:46;14.90;;;11.63;;
48487;SDS011;34289;48.572;13.378;2023-12-14T09:58:12;18.25;;;11.35;;
48487;SDS011;34289;48.572;13.378;2023-12-14T10:00:38;14.95;;;12.20;;
48487;SDS011;34289;48.572;13.378;2023-12-14T10:05:48;14.80;;;11.55;;
48487;SDS011;34289;48.572;13.378;2023-12-14T10:08:15;15.88;;;11.27;;
48487;SDS011;34289;48.572;13.378;2023-12-14T10:10:46;15.93;;;11.00;;
48487;SDS011;34289;48.572;13.378;2023-12-14T10:13:17;13.13;;;10.48;;
48487;SDS011;34289;48.572;13.378;2023-12-14T10:15:51;12.60;;;10.15;;
48487;SDS011;34289;48.572;13.378;2023-12-14T10:18:23;16.10;;;10.57;;
48487;SDS011;34289;48.572;13.378;2023-12-14T10:23:15;15.75;;;11.68;;
48487;SDS011;34289;48.572;13.378;2023-12-14T10:25:42;13.00;;;11.07;;
48487;SDS011;34289;48.572;13.378;2023-12-14T10:28:08;13.75;;;10.90;;
48487;SDS011;34289;48.572;13.378;2023-12-14T10:30:39;13.32;;;10.48;;
48487;SDS011;34289;48.572;13.378;2023-12-14T10:33:05;16.35;;;11.23;;
48487;SDS011;34289;48.572;13.378;2023-12-14T10:35:31;15.85;;;11.55;;
48487;SDS011;34289;48.572;13.378;2023-12-14T10:37:58;15.98;;;11.98;;
48487;SDS011;34289;48.572;13.378;2023-12-14T10:40:30;13.83;;;10.93;;
48487;SDS011;34289;48.572;13.378;2023-12-14T10:42:58;12.13;;;10.68;;
48487;SDS011;34289;48.572;13.378;2023-12-14T10:45:31;13.25;;;10.82;;
48487;SDS011;34289;48.572;13.378;2023-12-14T10:47:59;13.52;;;10.40;;
48487;SDS011;34289;48.572;13.378;2023-12-14T10:50:28;12.38;;;9.98;;
48487;SDS011;34289;48.572;13.378;2023-12-14T10:52:55;14.35;;;10.27;;
48487;SDS011;34289;48.572;13.378;2023-12-14T10:55:37;13.68;;;9.68;;
48487;SDS011;34289;48.572;13.378;2023-12-14T10:58:16;14.63;;;9.52;;
48487;SDS011;34289;48.572;13.378;2023-12-14T11:00:44;14.70;;;10.35;;
48487;SDS011;34289;48.572;13.378;2023-12-14T11:03:22;13.57;;;10.48;;
48487;SDS011;34289;48.572;13.378;2023-12-14T11:05:48;13.73;;;10.35;;
48487;SDS011;34289;48.572;13.378;2023-12-14T11:08:13;15.10;;;10.90;;
48487;SDS011;34289;48.572;13.378;2023-12-14T11:10:40;12.55;;;10.70;;
48487;SDS011;34289;48.572;13.378;2023-12-14T11:13:10;15.43;;;11.05;;
48487;SDS011;34289;48.572;13.378;2023-12-14T11:23:14;15.02;;;11.45;;
48487;SDS011;34289;48.572;13.378;2023-12-14T11:25:44;13.77;;;10.65;;
48487;SDS011;34289;48.572;13.378;2023-12-14T11:28:17;15.68;;;11.50;;
48487;SDS011;34289;48.572;13.378;2023-12-14T11:30:45;18.13;;;12.00;;
48487;SDS011;34289;48.572;13.378;2023-12-14T11:33:17;14.63;;;10.48;;
48487;SDS011;34289;48.572;13.378;2023-12-14T11:35:42;20.60;;;11.68;;
48487;SDS011;34289;48.572;13.378;2023-12-14T11:38:11;14.38;;;10.13;;
48487;SDS011;34289;48.572;13.378;2023-12-14T11:40:38;14.35;;;10.93;;
48487;SDS011;34289;48.572;13.378;2023-12-14T11:43:05;16.02;;;10.20;;
48487;SDS011;34289;48.572;13.378;2023-12-14T11:45:32;14.80;;;11.13;;
48487;SDS011;34289;48.572;13.378;2023-12-14T11:48:02;15.43;;;10.52;;
48487;SDS011;34289;48.572;13.378;2023-12-14T11:50:30;13.20;;;10.32;;
48487;SDS011;34289;48.572;13.378;2023-12-14T11:52:57;16.40;;;10.90;;
48487;SDS011;34289;48.572;13.378;2023-12-14T11:55:22;16.35;;;12.43;;
48487;SDS011;34289;48.572;13.378;2023-12-14T11:57:48;13.38;;;10.77;;
48487;SDS011;34289;48.572;13.378;2023-12-14T12:00:24;16.65;;;11.15;;
48487;SDS011;34289;48.572;13.378;2023-12-14T12:02:51;13.38;;;10.02;;
48487;SDS011;34289;48.572;13.378;2023-12-14T12:05:17;15.68;;;11.65;;
48487;SDS011;34289;48.572;13.378;2023-12-14T12:07:45;14.88;;;11.07;;
48487;SDS011;34289;48.572;13.378;2023-12-14T12:10:14;15.90;;;11.45;;
48487;SDS011;34289;48.572;13.378;2023-12-14T12:12:40;15.32;;;10.77;;
48487;SDS011;34289;48.572;13.378;2023-12-14T12:15:06;12.38;;;11.07;;
48487;SDS011;34289;48.572;13.378;2023-12-14T12:17:32;16.23;;;10.93;;
48487;SDS011;34289;48.572;13.378;2023-12-14T12:20:03;18.40;;;10.35;;
48487;SDS011;34289;48.572;13.378;2023-12-14T12:22:38;12.45;;;9.35;;
48487;SDS011;34289;48.572;13.378;2023-12-14T12:25:04;13.38;;;9.68;;
48487;SDS011;34289;48.572;13.378;2023-12-14T12:27:30;14.23;;;9.80;;
48487;SDS011;34289;48.572;13.378;2023-12-14T12:29:55;12.05;;;9.43;;
48487;SDS011;34289;48.572;13.378;2023-12-14T12:32:21;13.65;;;9.93;;
48487;SDS011;34289;48.572;13.378;2023-12-14T12:34:46;12.85;;;9.20;;
48487;SDS011;34289;48.572;13.378;2023-12-14T12:37:12;11.88;;;9.18;;
48487;SDS011;34289;48.572;13.378;2023-12-14T12:39:38;11.00;;;9.43;;
48487;SDS011;34289;48.572;13.378;2023-12-14T12:42:04;10.75;;;9.07;;
48487;SDS011;34289;48.572;13.378;2023-12-14T12:44:30;11.77;;;9.52;;
48487;SDS011;34289;48.572;13.378;2023-12-14T12:46:55;12.55;;;10.35;;
48487;SDS011;34289;48.572;13.378;2023-12-14T12:49:24;12.43;;;9.77;;
48487;SDS011;34289;48.572;13.378;2023-12-14T12:51:49;10.98;;;9.57;;
48487;SDS011;34289;48.572;13.378;2023-12-14T12:54:15;14.10;;;9.50;;
48487;SDS011;34289;48.572;13.378;2023-12-14T12:56:40;14.10;;;9.52;;
48487;SDS011;34289;48.572;13.378;2023-12-14T12:59:08;11.27;;;10.07;;
48487;SDS011;34289;48.572;13.378;2023-12-14T13:01:34;10.73;;;9.32;;
48487;SDS011;34289;48.572;13.378;2023-12-14T13:04:00;11.68;;;9.60;;
48487;SDS011;34289;48.572;13.378;2023-12-14T13:06:26;14.27;;;10.55;;
48487;SDS011;34289;48.572;13.378;2023-12-14T13:08:52;11.82;;;10.40;;
48487;SDS011;34289;48.572;13.378;2023-12-14T13:11:18;11.50;;;9.55;;
48487;SDS011;34289;48.572;13.378;2023-12-14T13:13:47;14.27;;;10.15;;
48487;SDS011;34289;48.572;13.378;2023-12-14T13:16:13;11.30;;;8.77;;
48487;SDS011;34289;48.572;13.378;2023-12-14T13:18:39;10.88;;;8.57;;
48487;SDS011;34289;48.572;13.378;2023-12-14T13:21:05;12.27;;;8.07;;
48487;SDS011;34289;48.572;13.378;2023-12-14T13:23:32;11.40;;;8.43;;
48487;SDS011;34289;48.572;13.378;2023-12-14T13:25:58;11.82;;;8.68;;
48487;SDS011;34289;48.572;13.378;2023-12-14T13:28:32;11.30;;;8.27;;
48487;SDS011;34289;48.572;13.378;2023-12-14T13:30:58;8.93;;;8.02;;
48487;SDS011;34289;48.572;13.378;2023-12-14T13:33:24;12.23;;;8.48;;
48487;SDS011;34289;48.572;13.378;2023-12-14T13:35:49;8.70;;;7.40;;
48487;SDS011;34289;48.572;13.378;2023-12-14T13:38:15;7.78;;;6.97;;
48487;SDS011;34289;48.572;13.378;2023-12-14T13:40:41;8.02;;;7.22;;
48487;SDS011;34289;48.572;13.378;2023-12-14T13:43:07;8.68;;;6.78;;
48487;SDS011;34289;48.572;13.378;2023-12-14T13:45:35;9.63;;;6.70;;
48487;SDS011;34289;48.572;13.378;2023-12-14T13:48:04;8.82;;;7.78;;
48487;SDS011;34289;48.572;13.378;2023-12-14T13:50:32;7.85;;;6.05;;
48487;SDS011;34289;48.572;13.378;2023-12-14T13:52:59;7.25;;;5.60;;
48487;SDS011;34289;48.572;13.378;2023-12-14T13:55:28;7.38;;;5.30;;
48487;SDS011;34289;48.572;13.378;2023-12-14T13:57:54;6.45;;;5.85;;
48487;SDS011;34289;48.572;13.378;2023-12-14T14:00:22;9.30;;;5.90;;
48487;SDS011;34289;48.572;13.378;2023-12-14T14:02:49;12.07;;;6.10;;
48487;SDS011;34289;48.572;13.378;2023-12-14T14:05:15;6.45;;;5.85;;
48487;SDS011;34289;48.572;13.378;2023-12-14T14:07:40;7.32;;;6.03;;
48487;SDS011;34289;48.572;13.378;2023-12-14T14:10:06;7.00;;;6.10;;
48487;SDS011;34289;48.572;13.378;2023-12-14T14:12:32;7.85;;;6.40;;
48487;SDS011;34289;48.572;13.378;2023-12-14T14:14:58;8.00;;;7.03;;
48487;SDS011;34289;48.572;13.378;2023-12-14T14:17:23;9.57;;;6.85;;
48487;SDS011;34289;48.572;13.378;2023-12-14T14:19:49;8.05;;;7.25;;
48487;SDS011;34289;48.572;13.378;2023-12-14T14:22:14;8.15;;;7.15;;
48487;SDS011;34289;48.572;13.378;2023-12-14T14:24:40;9.82;;;7.47;;
48487;SDS011;34289;48.572;13.378;2023-12-14T14:27:05;9.40;;;7.75;;
48487;SDS011;34289;48.572;13.378;2023-12-14T14:29:31;9.55;;;8.18;;
48487;SDS011;34289;48.572;13.378;2023-12-14T14:31:56;10.52;;;8.10;;
48487;SDS011;34289;48.572;13.378;2023-12-14T14:34:22;9.50;;;7.80;;